LFRZ/SNR METAR and TAF weather

Enter ICAO airport designator
Station Type Date Time Source
LFRZ METAR 2021/09/20 05:30 UTC NOAA

LFRZ 200530Z AUTO 30004KT 260V330 CAVOK 11/10 Q1022 NOSIG


Station Type Date Time Source
LFRZ Decoded METAR 2021/09/20 05:30 UTC NOAA

St-Nazaire, France (LFRZ) 47-19N 002-10W 4M
Sep 20, 2021 - 01:30 AM EDT / 2021.09.20 0530 UTC
Wind: from the WNW (300 degrees) at 5 MPH (4 KT) (direction variable):0
Visibility: greater than 7 mile(s):0
Temperature: 51 F (11 C)
Dew Point: 50 F (10 C)
Relative Humidity: 93%
Pressure (altimeter): 30.18 in. Hg (1022 hPa)
ob: LFRZ 200530Z AUTO 30004KT 260V330 CAVOK 11/10 Q1022 NOSIG
cycle: 5

Station Type Date Time Source
LFRZ TAF 2021/09/20 06:24 UTC NOAA

TAF LFRZ 200500Z 2006/2106 32006KT CAVOK

Example: see airport list